Data for 08/26/2005

Time Sea-Level Adjusted Pressure Absolute Pressure Temperature Relative Humidity Dew Point   
(mb) (inHg) (mb) (inHg) (C) (F) (%) (C) (F)
00:05 1021 30.15 850 25.1 11.9 53.5 41 -1 30.2
00:10 1021 30.15 850 25.1 12 53.6 40 -1.1 30.1
00:15 1021 30.15 850 25.1 12.1 53.7 39 -1.6 29.2
00:20 1021 30.15 850 25.1 12.2 54 38 -1.5 29.2
00:25 1021 30.15 850 25.1 12.2 54 39 -1.4 29.4
00:30 1021 30.15 850 25.1 12.1 53.8 38 -1.7 28.9
00:35 1021 30.15 850 25.1 12 53.5 38 -1.8 28.8
00:40 1021 30.15 850 25.1 11.7 53.1 38 -2.1 28.1
00:45 1021 30.15 850 25.1 11.9 53.3 38 -1.9 28.6
00:50 1021 30.15 850 25.1 12 53.6 37 -2.2 28
00:55 1021 30.15 850 25.1 12.3 54.2 36 -2.2 28.1
01:00 1021 30.15 850 25.1 12.6 54.8 34 -2.6 27.3
01:05 1021 30.15 850 25.1 12.5 54.4 39 -1 30.1
01:10 1021 30.15 850 25.1 11.7 53.1 41 -1 30.3
01:15 1021 30.15 850 25.1 11.1 51.9 42 -1.3 29.7
01:20 1021 30.15 850 25.1 10.7 51.3 44 -0.8 30.5
01:25 1021 30.15 850 25.1 10.3 50.5 45 -1.2 29.9
01:30 1021 30.15 850 25.1 10.1 50.1 46 -0.9 30.3
01:35 1021 30.15 850 25.1 9.9 49.8 47 -0.9 30.4
01:40 1021 30.15 850 25.1 9.6 49.2 47 -1 30.1
01:45 1021 30.15 850 25.1 9.5 49 47 -1.1 29.9
01:50 1021 30.15 850 25.1 9.5 49 48 -1 30.2
01:55 1021 30.15 850 25.1 9.4 48.8 47 -1.4 29.4
02:00 1021 30.15 850 25.1 9.3 48.8 47 -1.3 29.7
02:05 1021 30.15 850 25.1 9.7 49.4 43 -2.2 28.1
02:10 1021 30.15 851 25.13 10 50.1 43 -2 28.3
02:15 1021 30.15 851 25.13 10.1 50.1 44 -1.7 29
02:20 1021 30.15 851 25.13 10 50.1 44 -1.5 29.3
02:25 1021 30.15 850 25.1 9.8 49.6 46 -1.3 29.6
02:30 1021 30.15 850 25.1 9.5 49.1 46 -1.4 29.4
02:35 1021 30.15 850 25.1 9.3 48.8 46 -1.5 29.2
02:40 1021 30.15 850 25.1 9.1 48.3 47 -1.7 29
02:45 1021 30.15 850 25.1 9.3 48.7 46 -1.8 28.7
02:50 1021 30.15 850 25.1 9.5 49 43 -2.4 27.7
02:55 1021 30.15 851 25.13 10 49.9 43 -1.9 28.7
03:00 1021 30.15 851 25.13 10.2 50.3 43 -1.8 28.8
03:05 1021 30.15 851 25.13 10 50.1 43 -1.8 28.8
03:10 1021 30.15 850 25.1 9.9 49.7 44 -1.6 29.1
03:15 1021 30.15 851 25.13 10.1 50.2 41 -2.5 27.5
03:20 1021 30.15 851 25.13 10.5 50.9 40 -2.4 27.8
03:25 1021 30.15 851 25.13 10.6 51 40 -2.5 27.6
03:30 1021 30.15 851 25.13 10.6 51 40 -2.6 27.3
03:35 1021 30.15 851 25.13 10.7 51.2 38 -2.9 26.7
03:40 1021 30.15 851 25.13 10.9 51.7 37 -3.1 26.4
03:45 1021 30.15 851 25.13 10.8 51.5 40 -2.3 27.9
03:50 1021 30.15 851 25.13 10.4 50.8 41 -2.2 28
03:55 1021 30.15 851 25.13 10.3 50.5 39 -3 26.7
04:00 1021 30.15 851 25.13 10.7 51.3 39 -2.6 27.4
04:05 1021 30.15 851 25.13 10.7 51.2 40 -2.4 27.8
04:10 1021 30.15 851 25.13 10.4 50.7 41 -2.3 27.8
04:15 1021 30.15 851 25.13 10.3 50.5 42 -2.1 28.2
04:20 1021 30.15 851 25.13 10.5 51 41 -2.1 28.2
04:25 1021 30.15 851 25.13 10.6 51.2 40 -2.4 27.8
04:30 1021 30.15 851 25.13 10.5 50.9 40 -2.5 27.5
04:35 1021 30.15 851 25.13 10.5 50.9 42 -2 28.4
04:40 1021 30.15 850 25.1 10.3 50.6 41 -2.2 28.1
04:45 1021 30.15 850 25.1 10.4 50.6 41 -2.1 28.1
04:50 1021 30.15 851 25.13 10.5 50.8 41 -2.1 28.2
04:55 1021 30.15 851 25.13 10.3 50.6 43 -1.6 29
05:00 1021 30.15 851 25.13 9.7 49.5 46 -1.4 29.4
05:05 1021 30.15 851 25.13 9 48.1 48 -1.5 29.3
05:10 1021 30.15 851 25.13 8.6 47.4 49 -1.4 29.5
05:15 1021 30.15 851 25.13 8.3 47 51 -1.2 29.9
05:20 1021 30.15 851 25.13 8.1 46.6 51 -1.4 29.5
05:25 1021 30.15 851 25.13 8.4 47.1 50 -1.5 29.3
05:30 1021 30.15 851 25.13 8.9 48.1 48 -1.5 29.2
05:35 1021 30.15 851 25.13 9.3 48.8 47 -1.5 29.3
05:40 1021 30.15 851 25.13 9.4 48.8 47 -1.4 29.4
05:45 1021 30.15 851 25.13 9.6 49.2 45 -1.7 29
05:50 1022 30.18 851 25.13 9.6 49.2 44 -2.1 28.2
05:55 1022 30.18 851 25.13 9.6 49.3 44 -2 28.5
06:00 1022 30.18 851 25.13 9.6 49.3 46 -1.4 29.5
06:05 1022 30.18 851 25.13 8.9 47.9 49 -1.1 29.9
06:10 1022 30.18 851 25.13 8.2 46.7 51 -1.2 29.8
06:15 1022 30.18 851 25.13 7.9 46.3 51 -1.5 29.3
06:20 1022 30.18 851 25.13 7.8 46.1 54 -0.9 30.4
06:25 1022 30.18 851 25.13 7.5 45.5 56 -0.8 30.6
06:30 1022 30.18 851 25.13 7.5 45.4 52 -1.7 28.9
06:35 1022 30.18 851 25.13 8 46.3 52 -1.2 29.8
06:40 1022 30.18 851 25.13 7.5 45.5 54 -1.2 29.9
06:45 1022 30.18 851 25.13 7.4 45.3 56 -0.9 30.4
06:50 1022 30.18 851 25.13 7.2 45 55 -1.3 29.7
06:55 1022 30.18 851 25.13 7.5 45.4 53 -1.4 29.4
07:00 1022 30.18 851 25.13 7.8 46 52 -1.4 29.5
07:05 1022 30.18 851 25.13 7.5 45.6 52 -1.6 29.1
07:10 1022 30.18 851 25.13 7.8 46.1 54 -1 30.2
07:15 1022 30.18 851 25.13 7.4 45.4 55 -0.9 30.3
07:20 1022 30.18 851 25.13 7.4 45.4 56 -0.9 30.4
07:25 1022 30.18 851 25.13 7.6 45.7 54 -1 30.2
07:30 1022 30.18 851 25.13 7.9 46.3 53 -1 30.2
07:35 1022 30.18 851 25.13 8.2 46.7 54 -0.6 31
07:40 1022 30.18 851 25.13 8.3 46.9 54 -0.5 31.1
07:45 1022 30.18 851 25.13 8.3 47 52 -0.8 30.6
07:50 1022 30.18 851 25.13 8.7 47.6 53 -0.4 31.3
07:55 1022 30.18 851 25.13 9 48.1 52 -0.2 31.6
08:00 1022 30.18 851 25.13 9.4 48.9 53 0.4 32.6
08:05 1022 30.18 851 25.13 9.7 49.4 51 0.1 32.3
08:10 1022 30.18 851 25.13 9.9 49.8 51 0.3 32.5
08:15 1022 30.18 851 25.13 10.4 50.8 50 0.5 33
08:20 1022 30.18 851 25.13 11 51.9 49 0.7 33.3
08:25 1022 30.18 851 25.13 11.8 53.3 46 0.6 33.1
08:30 1022 30.18 851 25.13 12.7 54.9 45 1.2 34.1
08:35 1022 30.18 851 25.13 12.6 54.7 42 0.1 32.2
08:40 1022 30.18 851 25.13 13.2 55.7 40 -0.1 31.9
08:45 1022 30.18 851 25.13 14 57.1 40 0.7 33.2
08:50 1022 30.18 851 25.13 14.3 57.8 39 0.6 33.2
08:55 1022 30.18 851 25.13 14.6 58.2 39 0.8 33.5
09:00 1022 30.18 851 25.13 15.3 59.5 38 1 33.8
09:05 1022 30.18 851 25.13 15.6 60 38 1.2 34.2
09:10 1022 30.18 851 25.13 15.3 59.5 35 0.1 32.2
09:15 1022 30.18 851 25.13 16 60.8 34 0.3 32.5
09:20 1022 30.18 851 25.13 16.6 61.8 35 1 33.9
09:25 1022 30.18 851 25.13 16.8 62.3 33 0.8 33.4
09:30 1022 30.18 851 25.13 16.9 62.4 34 1.1 33.9
09:35 1022 30.18 851 25.13 16.9 62.5 34 1.2 34.2
09:40 1022 30.18 851 25.13 17.2 62.9 34 1.2 34.1
09:45 1022 30.18 851 25.13 17.5 63.5 34 1.5 34.6
09:50 1022 30.18 851 25.13 18 64.4 34 1.9 35.4
09:55 1022 30.18 851 25.13 18.4 65.1 30 0.7 33.3
10:00 1022 30.18 851 25.13 18.3 64.9 30 0.7 33.3
10:05 1022 30.18 851 25.13 17.9 64.3 31 0.8 33.4
10:10 1022 30.18 851 25.13 18.2 64.8 30 0.7 33.3
10:15 1022 30.18 851 25.13 18.4 65.2 29 0.3 32.6
10:20 1022 30.18 851 25.13 18.6 65.5 29 0.3 32.6
10:25 1022 30.18 851 25.13 18.7 65.7 30 0.8 33.5
10:30 1022 30.18 851 25.13 19.3 66.8 28 0.7 33.2
10:35 1022 30.18 851 25.13 19.4 67 28 0.7 33.3
10:40 1022 30.18 851 25.13 19.6 67.2 27 0.3 32.5
10:45 1022 30.18 851 25.13 19.9 67.9 25 -0.4 31.4
10:50 1022 30.18 851 25.13 20.4 68.7 25 -0 32
10:55 1022 30.18 851 25.13 19.7 67.4 27 0.1 32.3
11:00 1022 30.18 851 25.13 20.2 68.4 25 -0.3 31.5
11:05 1022 30.18 851 25.13 20.5 69 25 0.1 32.1
11:10 1022 30.18 851 25.13 20.7 69.2 25 -0.1 31.8
11:15 1022 30.18 851 25.13 20.9 69.6 23 -1 30.3
11:20 1022 30.18 851 25.13 20.3 68.6 24 -0.9 30.4
11:25 1022 30.18 851 25.13 20.8 69.5 24 -0.5 31
11:30 1022 30.18 851 25.13 21.3 70.4 23 -0.5 31.1
11:35 1022 30.18 851 25.13 21.2 70.1 24 -0.3 31.5
11:40 1022 30.18 851 25.13 21.3 70.3 22 -1 30.2
11:45 1022 30.18 851 25.13 22.4 72.2 21 -0.8 30.6
11:50 1022 30.18 851 25.13 22.5 72.5 21 -0.7 30.8
11:55 1022 30.18 851 25.13 22.8 73.1 21 -0.2 31.6
12:00 1022 30.18 851 25.13 22.8 73.1 20 -0.8 30.6
12:05 1022 30.18 851 25.13 22.9 73.3 20 -0.8 30.6
12:10 1022 30.18 851 25.13 23.2 73.7 19 -1.2 29.8
12:15 1021 30.15 851 25.13 23.6 74.4 19 -1.5 29.3
12:20 1021 30.15 851 25.13 23.3 73.9 17 -2.7 27.1
12:25 1021 30.15 851 25.13 23.3 74 15 -4.7 23.6
12:30 1021 30.15 851 25.13 23.5 74.4 15 -4.2 24.5
12:35 1021 30.15 851 25.13 23.7 74.7 15 -3.9 24.9
12:40 1021 30.15 851 25.13 23.7 74.7 15 -4.6 23.6
12:45 1021 30.15 850 25.1 23.6 74.4 14 -4.9 23.1
12:50 1021 30.15 850 25.1 23.5 74.3 16 -3.6 25.5
12:55 1021 30.15 850 25.1 23.9 75.1 16 -3.3 26.1
13:00 1021 30.15 850 25.1 24 75.3 14 -4.7 23.6
13:05 1021 30.15 850 25.1 24.2 75.6 14 -4.7 23.5
13:10 1021 30.15 850 25.1 23.9 75 15 -4 24.8
13:15 1021 30.15 850 25.1 24.6 76.2 14 -4.8 23.4
13:20 1021 30.15 850 25.1 25 76.9 14 -4.2 24.5
13:25 1021 30.15 850 25.1 24.8 76.6 14 -4 24.7
13:30 1021 30.15 850 25.1 24.8 76.7 14 -4.3 24.3
13:35 1021 30.15 850 25.1 24.2 75.5 15 -4.2 24.4
13:40 1021 30.15 850 25.1 24.2 75.6 14 -4.3 24.3
13:45 1021 30.15 850 25.1 24.6 76.3 15 -3.5 25.6
13:50 1021 30.15 850 25.1 24.9 76.7 14 -3.8 25.2
13:55 1021 30.15 850 25.1 25 77 15 -3.5 25.7
14:00 1021 30.15 850 25.1 25.3 77.5 15 -2.6 27.3
14:05 1021 30.15 850 25.1 25.1 77.2 15 -2.9 26.9
14:10 1021 30.15 850 25.1 25.2 77.3 15 -3 26.5
14:15 1021 30.15 850 25.1 25.1 77.2 15 -3.2 26.2
14:20 1020 30.12 850 25.1 25.1 77.2 14 -3.6 25.6
14:25 1021 30.15 850 25.1 24.6 76.2 15 -3.5 25.6
14:30 1020 30.12 850 25.1 25.3 77.6 15 -2.8 27
14:35 1020 30.12 850 25.1 26.1 78.9 14 -2.8 26.9
14:40 1020 30.12 850 25.1 25.6 78 14 -3.3 26.1
14:45 1020 30.12 850 25.1 25.4 77.7 15 -3.2 26.2
14:50 1020 30.12 849 25.07 25.3 77.6 15 -3.1 26.5
14:55 1020 30.12 849 25.07 26.4 79.5 14 -3.1 26.4
15:00 1020 30.12 849 25.07 26.4 79.5 14 -2.8 27
15:05 1020 30.12 849 25.07 26 78.7 15 -2.2 28.1
15:10 1020 30.12 849 25.07 25.9 78.6 14 -3.3 26.1
15:15 1020 30.12 849 25.07 26.5 79.6 15 -2.3 27.9
15:20 1020 30.12 849 25.07 26.1 79 14 -3 26.7
15:25 1020 30.12 849 25.07 26.3 79.4 14 -3 26.6
15:30 1020 30.12 849 25.07 26.8 80.2 14 -3.1 26.5
15:35 1020 30.12 849 25.07 26.7 80.1 14 -2.7 27.2
15:40 1020 30.12 849 25.07 26.8 80.3 14 -3.1 26.5
15:45 1020 30.12 849 25.07 26.9 80.3 13 -3.7 25.4
15:50 1020 30.12 849 25.07 26.8 80.2 13 -3.6 25.6
15:55 1020 30.12 849 25.07 26.6 79.9 13 -3.4 26
16:00 1020 30.12 849 25.07 26.6 80 14 -3.1 26.4
16:05 1020 30.12 849 25.07 26.6 79.8 14 -3.1 26.5
16:10 1019 30.09 849 25.07 26.6 79.8 13 -3.4 25.8
16:15 1019 30.09 849 25.07 26.8 80.2 13 -3.5 25.8
16:20 1019 30.09 849 25.07 26.8 80.3 14 -2.7 27.2
16:25 1019 30.09 849 25.07 26.8 80.2 15 -2.2 28.1
16:30 1019 30.09 848 25.04 26.8 80.3 14 -2.2 28.1
16:35 1019 30.09 848 25.04 27.3 81.1 14 -2.8 27
16:40 1019 30.09 848 25.04 27.9 82.2 13 -3.1 26.4
16:45 1019 30.09 848 25.04 27.8 82.1 12 -3.7 25.3
16:50 1019 30.09 848 25.04 27.4 81.3 12 -4 24.7
16:55 1019 30.09 848 25.04 27.4 81.4 12 -3.7 25.4
17:00 1019 30.09 848 25.04 27.5 81.5 13 -3.6 25.5
17:05 1019 30.09 848 25.04 27.8 82 13 -3.3 26.1
17:10 1019 30.09 848 25.04 28.3 82.9 12 -3.7 25.4
17:15 1019 30.09 848 25.04 28.4 83.1 12 -3.7 25.3
17:20 1019 30.09 848 25.04 27.9 82.1 12 -3.6 25.6
17:25 1019 30.09 848 25.04 28 82.4 12 -3.9 25
17:30 1019 30.09 848 25.04 28 82.5 13 -3 26.6
17:35 1019 30.09 848 25.04 28 82.5 13 -3 26.6
17:40 1019 30.09 848 25.04 28.3 82.9 12 -3.1 26.4
17:45 1019 30.09 848 25.04 28.2 82.7 13 -3 26.6
17:50 1019 30.09 848 25.04 28.1 82.6 11 -4.6 23.6
17:55 1019 30.09 848 25.04 28.1 82.5 12 -3.3 26.1
18:00 1019 30.09 848 25.04 27.9 82.1 13 -3.2 26.3
18:05 1019 30.09 848 25.04 27.8 82 12 -3.6 25.5
18:10 1019 30.09 848 25.04 27.9 82.3 12 -3.4 25.9
18:15 1019 30.09 848 25.04 27.8 82 14 -2 28.4
18:20 1019 30.09 848 25.04 27.7 81.8 13 -3 26.5
18:25 1019 30.09 848 25.04 27.6 81.6 13 -3 26.7
18:30 1019 30.09 848 25.04 27.6 81.7 13 -2.7 27.2
18:35 1019 30.09 848 25.04 27.2 81 14 -2.3 27.9
18:40 1019 30.09 848 25.04 26.9 80.4 15 -1.4 29.4
18:45 1019 30.09 848 25.04 26.6 79.8 15 -2 28.5
18:50 1019 30.09 848 25.04 26.4 79.5 15 -2.2 28.1
18:55 1019 30.09 848 25.04 26.4 79.5 15 -2 28.4
19:00 1019 30.09 848 25.04 26.4 79.5 15 -1.8 28.8
19:05 1019 30.09 848 25.04 26.4 79.4 15 -1.9 28.6
19:10 1019 30.09 848 25.04 26.3 79.3 15 -2 28.4
19:15 1019 30.09 848 25.04 26.2 79.1 15 -2.4 27.7
19:20 1019 30.09 848 25.04 26.1 79 15 -2.4 27.7
19:25 1019 30.09 848 25.04 26 78.9 16 -1.6 29.2
19:30 1019 30.09 848 25.04 25.8 78.5 17 -1.1 30
19:35 1019 30.09 848 25.04 25.5 77.9 18 -0 32
19:40 1019 30.09 848 25.04 25.1 77.3 21 1.7 35.1
19:45 1019 30.09 848 25.04 24.7 76.4 21 0.9 33.7
19:50 1019 30.09 848 25.04 24.5 76.1 21 0.7 33.3
19:55 1019 30.09 848 25.04 24.2 75.5 23 2.2 36
20:00 1019 30.09 848 25.04 23.8 74.8 23 1.4 34.5
20:05 1019 30.09 848 25.04 23.6 74.4 22 1.1 33.9
20:10 1019 30.09 848 25.04 23.4 74.1 22 0.7 33.2
20:15 1019 30.09 848 25.04 23.1 73.6 23 1 33.8
20:20 1019 30.09 848 25.04 22.9 73.3 22 0.4 32.6
20:25 1019 30.09 848 25.04 22.8 73.1 22 -0.1 31.9
20:30 1019 30.09 848 25.04 22.5 72.6 26 2 35.6
20:35 1019 30.09 849 25.07 22 71.6 25 1.1 34.1
20:40 1019 30.09 849 25.07 21.3 70.3 25 0.6 33.1
20:45 1019 30.09 849 25.07 20.7 69.2 27 1.2 34.1
20:50 1020 30.12 849 25.07 19.6 67.2 32 2.6 36.6
20:55 1020 30.12 849 25.07 18.8 65.9 31 1.6 34.8
21:00 1020 30.12 849 25.07 18.6 65.5 30 0.9 33.5
21:05 1020 30.12 849 25.07 18.6 65.5 28 0.1 32.2
21:10 1020 30.12 849 25.07 18.6 65.5 28 -0 31.9
21:15 1020 30.12 849 25.07 18.4 65.1 30 0.6 33.2
21:20 1020 30.12 849 25.07 18.2 64.7 29 0.1 32.1
21:25 1020 30.12 849 25.07 18.4 65.1 27 -0.9 30.4
21:30 1020 30.12 849 25.07 18.7 65.7 28 0.1 32.2
21:35 1020 30.12 849 25.07 18.4 65.1 27 -0.8 30.6
21:40 1020 30.12 849 25.07 18.1 64.7 32 1.2 34.1
21:45 1020 30.12 849 25.07 17.8 64.1 28 -0.9 30.4
21:50 1020 30.12 849 25.07 17.7 63.9 27 -1.4 29.4
21:55 1020 30.12 849 25.07 17.9 64.2 29 -0.4 31.3
22:00 1020 30.12 849 25.07 17.6 63.6 29 -0.6 31
22:05 1020 30.12 849 25.07 17.4 63.4 28 -1.2 29.8
22:10 1020 30.12 849 25.07 17.6 63.7 27 -1.3 29.7
22:15 1020 30.12 849 25.07 17.2 62.9 30 -0.5 31.1
22:20 1020 30.12 849 25.07 16.9 62.4 35 1.4 34.5
22:25 1020 30.12 849 25.07 16.8 62.2 29 -1.4 29.4
22:30 1020 30.12 849 25.07 16.9 62.4 28 -1.6 29.1
22:35 1020 30.12 849 25.07 16.7 62 32 -0.2 31.7
22:40 1020 30.12 850 25.1 16.6 61.8 29 -1.4 29.5
22:45 1020 30.12 850 25.1 16.6 61.9 32 -0.1 31.7
22:50 1020 30.12 850 25.1 15.9 60.6 42 3.1 37.5
22:55 1020 30.12 850 25.1 15.7 60.2 33 -0.4 31.2
23:00 1020 30.12 850 25.1 15.4 59.7 33 -0.5 31.1
23:05 1021 30.15 850 25.1 15.1 59.2 34 -0.4 31.3
23:10 1021 30.15 850 25.1 15.1 59.2 32 -1.2 29.9
23:15 1021 30.15 850 25.1 15 59.1 33 -1 30.2
23:20 1021 30.15 850 25.1 14.8 58.6 35 -0.3 31.4
23:25 1021 30.15 850 25.1 14.4 57.8 35 -0.7 30.7
23:30 1021 30.15 850 25.1 14.3 57.8 35 -1 30.2
23:35 1021 30.15 850 25.1 14.3 57.8 35 -1 30.2
23:40 1021 30.15 850 25.1 14.3 57.8 34 -1.3 29.6
23:45 1021 30.15 850 25.1 14.4 57.8 32 -2.3 27.9
23:50 1021 30.15 850 25.1 15 59 30 -2.4 27.6
23:55 1021 30.15 850 25.1 15 59 30 -2.3 27.8
24:00 1021 30.15 850 25.1 14.9 58.9 31 -2 28.4